Terminal Aerodrome Forecast
Issued by NWS

Home | Current Version | Previous Version | Text Only | Print | Product List | Glossary On
Versions: 1 2 3 4 5 6 7 8 9 10 11 12 13 14 15
000
FTUS44 KJAN 241731
TAFGTR
TAF
KGTR 241731Z 2418/2518 19013G24KT P6SM SCT040
     FM250100 21007KT P6SM VCTS BKN035CB
     FM250600 30010G20KT P6SM SCT040=

USA.gov is the U.S. government's official web portal to all federal, state and local government web resources and services.